sensor_id;sensor_type;location;lat;lon;timestamp;temperature;humidity
38456;DHT22;24237;50.106;20.014;2024-02-26T00:01:42;10.80;99.90
38456;DHT22;24237;50.106;20.014;2024-02-26T00:04:11;10.70;99.90
38456;DHT22;24237;50.106;20.014;2024-02-26T01:10:37;9.70;13.60
38456;DHT22;24237;50.106;20.014;2024-02-26T01:13:03;9.60;42.20
38456;DHT22;24237;50.106;20.014;2024-02-26T01:15:29;9.50;99.90
38456;DHT22;24237;50.106;20.014;2024-02-26T01:17:54;9.50;99.90
38456;DHT22;24237;50.106;20.014;2024-02-26T01:20:20;9.40;99.90
38456;DHT22;24237;50.106;20.014;2024-02-26T01:22:46;9.40;99.90
38456;DHT22;24237;50.106;20.014;2024-02-26T01:25:12;9.30;99.90
38456;DHT22;24237;50.106;20.014;2024-02-26T01:27:38;9.30;1.00
38456;DHT22;24237;50.106;20.014;2024-02-26T01:30:07;9.30;1.00
38456;DHT22;24237;50.106;20.014;2024-02-26T01:32:33;9.20;1.00
38456;DHT22;24237;50.106;20.014;2024-02-26T01:34:58;9.30;17.40
38456;DHT22;24237;50.106;20.014;2024-02-26T01:37:24;9.30;1.00
38456;DHT22;24237;50.106;20.014;2024-02-26T01:39:49;9.20;85.30
38456;DHT22;24237;50.106;20.014;2024-02-26T01:42:15;9.20;61.50
38456;DHT22;24237;50.106;20.014;2024-02-26T01:44:41;9.10;78.80
38456;DHT22;24237;50.106;20.014;2024-02-26T01:47:10;9.20;93.60
38456;DHT22;24237;50.106;20.014;2024-02-26T01:49:36;9.10;99.90
38456;DHT22;24237;50.106;20.014;2024-02-26T01:52:04;9.10;99.90
38456;DHT22;24237;50.106;20.014;2024-02-26T01:54:30;9.20;99.90
38456;DHT22;24237;50.106;20.014;2024-02-26T01:56:57;9.20;79.60
38456;DHT22;24237;50.106;20.014;2024-02-26T01:59:23;9.00;1.00
38456;DHT22;24237;50.106;20.014;2024-02-26T02:01:57;9.00;71.10
38456;DHT22;24237;50.106;20.014;2024-02-26T02:04:23;8.90;98.70
38456;DHT22;24237;50.106;20.014;2024-02-26T02:06:50;8.80;99.90
38456;DHT22;24237;50.106;20.014;2024-02-26T02:09:18;8.70;99.90
38456;DHT22;24237;50.106;20.014;2024-02-26T02:11:43;8.70;1.00
38456;DHT22;24237;50.106;20.014;2024-02-26T02:14:10;8.70;99.90
38456;DHT22;24237;50.106;20.014;2024-02-26T02:16:35;8.70;99.90
38456;DHT22;24237;50.106;20.014;2024-02-26T02:19:01;8.70;99.90
38456;DHT22;24237;50.106;20.014;2024-02-26T02:21:27;8.70;1.00
38456;DHT22;24237;50.106;20.014;2024-02-26T02:23:52;8.70;1.00
38456;DHT22;24237;50.106;20.014;2024-02-26T02:26:18;8.70;1.00
38456;DHT22;24237;50.106;20.014;2024-02-26T02:28:44;8.70;1.00
38456;DHT22;24237;50.106;20.014;2024-02-26T02:31:11;8.70;1.00
38456;DHT22;24237;50.106;20.014;2024-02-26T02:33:36;8.80;1.00
38456;DHT22;24237;50.106;20.014;2024-02-26T02:36:02;8.90;99.90
38456;DHT22;24237;50.106;20.014;2024-02-26T02:38:28;8.90;99.90
38456;DHT22;24237;50.106;20.014;2024-02-26T02:40:55;8.90;99.90
38456;DHT22;24237;50.106;20.014;2024-02-26T02:43:21;8.80;99.90
38456;DHT22;24237;50.106;20.014;2024-02-26T02:45:47;8.60;99.90
38456;DHT22;24237;50.106;20.014;2024-02-26T02:48:14;8.60;1.00
38456;DHT22;24237;50.106;20.014;2024-02-26T02:50:40;8.50;1.00
38456;DHT22;24237;50.106;20.014;2024-02-26T02:53:06;8.40;1.00
38456;DHT22;24237;50.106;20.014;2024-02-26T02:55:31;8.40;1.00
38456;DHT22;24237;50.106;20.014;2024-02-26T02:57:57;8.40;1.00
38456;DHT22;24237;50.106;20.014;2024-02-26T03:00:22;8.40;1.00
38456;DHT22;24237;50.106;20.014;2024-02-26T03:02:49;8.50;1.00
38456;DHT22;24237;50.106;20.014;2024-02-26T03:05:15;8.50;1.00
38456;DHT22;24237;50.106;20.014;2024-02-26T03:07:40;8.60;1.00
38456;DHT22;24237;50.106;20.014;2024-02-26T03:10:06;8.60;1.00
38456;DHT22;24237;50.106;20.014;2024-02-26T03:12:34;8.60;1.00
38456;DHT22;24237;50.106;20.014;2024-02-26T03:15:00;8.60;1.00
38456;DHT22;24237;50.106;20.014;2024-02-26T03:17:29;8.60;99.90
38456;DHT22;24237;50.106;20.014;2024-02-26T03:19:54;8.50;99.90
38456;DHT22;24237;50.106;20.014;2024-02-26T03:22:20;8.50;1.00
38456;DHT22;24237;50.106;20.014;2024-02-26T03:24:47;8.50;99.90
38456;DHT22;24237;50.106;20.014;2024-02-26T03:27:13;8.30;99.90
38456;DHT22;24237;50.106;20.014;2024-02-26T03:29:38;8.20;99.90
38456;DHT22;24237;50.106;20.014;2024-02-26T03:32:07;8.00;99.90
38456;DHT22;24237;50.106;20.014;2024-02-26T03:34:33;7.80;1.00
38456;DHT22;24237;50.106;20.014;2024-02-26T03:37:04;7.80;99.90
38456;DHT22;24237;50.106;20.014;2024-02-26T03:39:30;7.80;99.90
38456;DHT22;24237;50.106;20.014;2024-02-26T03:41:56;7.80;99.90
38456;DHT22;24237;50.106;20.014;2024-02-26T03:44:22;7.90;99.90
38456;DHT22;24237;50.106;20.014;2024-02-26T03:46:47;7.70;99.90
38456;DHT22;24237;50.106;20.014;2024-02-26T03:49:13;7.50;81.40
38456;DHT22;24237;50.106;20.014;2024-02-26T03:51:39;7.50;99.90
38456;DHT22;24237;50.106;20.014;2024-02-26T03:54:04;7.50;99.90
38456;DHT22;24237;50.106;20.014;2024-02-26T03:56:30;7.60;99.90
38456;DHT22;24237;50.106;20.014;2024-02-26T03:58:56;7.70;99.90
38456;DHT22;24237;50.106;20.014;2024-02-26T04:01:22;8.00;97.30
38456;DHT22;24237;50.106;20.014;2024-02-26T04:03:48;8.00;85.40
38456;DHT22;24237;50.106;20.014;2024-02-26T04:06:14;7.90;67.80
38456;DHT22;24237;50.106;20.014;2024-02-26T04:08:43;7.90;56.80
38456;DHT22;24237;50.106;20.014;2024-02-26T04:11:09;7.90;1.00
38456;DHT22;24237;50.106;20.014;2024-02-26T04:13:35;7.80;1.00
38456;DHT22;24237;50.106;20.014;2024-02-26T04:16:01;7.70;1.00
38456;DHT22;24237;50.106;20.014;2024-02-26T04:18:28;7.60;1.00
38456;DHT22;24237;50.106;20.014;2024-02-26T04:20:53;7.60;1.00
38456;DHT22;24237;50.106;20.014;2024-02-26T04:23:19;7.40;1.00
38456;DHT22;24237;50.106;20.014;2024-02-26T04:25:45;7.30;1.00
38456;DHT22;24237;50.106;20.014;2024-02-26T04:28:11;7.10;1.00
38456;DHT22;24237;50.106;20.014;2024-02-26T04:30:37;7.00;1.60
38456;DHT22;24237;50.106;20.014;2024-02-26T04:33:03;6.80;99.90
38456;DHT22;24237;50.106;20.014;2024-02-26T04:35:29;6.70;99.90
38456;DHT22;24237;50.106;20.014;2024-02-26T04:37:54;6.80;1.00
38456;DHT22;24237;50.106;20.014;2024-02-26T04:40:20;6.90;1.00
38456;DHT22;24237;50.106;20.014;2024-02-26T04:42:46;7.00;15.50
38456;DHT22;24237;50.106;20.014;2024-02-26T04:45:11;7.10;1.00
38456;DHT22;24237;50.106;20.014;2024-02-26T04:47:37;7.20;1.00
38456;DHT22;24237;50.106;20.014;2024-02-26T04:50:03;7.20;99.90
38456;DHT22;24237;50.106;20.014;2024-02-26T04:52:29;7.30;99.90
38456;DHT22;24237;50.106;20.014;2024-02-26T04:54:55;7.00;1.00
38456;DHT22;24237;50.106;20.014;2024-02-26T04:57:21;6.80;1.00
38456;DHT22;24237;50.106;20.014;2024-02-26T04:59:47;6.70;99.90
38456;DHT22;24237;50.106;20.014;2024-02-26T05:02:13;6.70;1.00
38456;DHT22;24237;50.106;20.014;2024-02-26T05:04:39;6.80;1.00
38456;DHT22;24237;50.106;20.014;2024-02-26T05:07:05;6.80;1.00
38456;DHT22;24237;50.106;20.014;2024-02-26T05:09:31;6.90;25.90
38456;DHT22;24237;50.106;20.014;2024-02-26T05:11:57;6.90;89.00
38456;DHT22;24237;50.106;20.014;2024-02-26T05:14:22;7.00;93.30
38456;DHT22;24237;50.106;20.014;2024-02-26T05:16:48;7.10;1.00
38456;DHT22;24237;50.106;20.014;2024-02-26T05:19:13;7.20;1.00
38456;DHT22;24237;50.106;20.014;2024-02-26T05:21:39;7.20;1.00
38456;DHT22;24237;50.106;20.014;2024-02-26T05:24:06;7.30;1.00
38456;DHT22;24237;50.106;20.014;2024-02-26T05:26:32;7.30;99.90
38456;DHT22;24237;50.106;20.014;2024-02-26T05:28:57;7.20;99.90
38456;DHT22;24237;50.106;20.014;2024-02-26T05:31:25;7.20;1.00
38456;DHT22;24237;50.106;20.014;2024-02-26T05:33:51;7.20;99.90
38456;DHT22;24237;50.106;20.014;2024-02-26T05:36:19;7.10;99.90
38456;DHT22;24237;50.106;20.014;2024-02-26T05:38:45;7.10;1.00
38456;DHT22;24237;50.106;20.014;2024-02-26T05:41:12;7.10;99.90
38456;DHT22;24237;50.106;20.014;2024-02-26T05:43:37;7.20;99.90
38456;DHT22;24237;50.106;20.014;2024-02-26T05:46:03;7.10;99.90
38456;DHT22;24237;50.106;20.014;2024-02-26T05:48:29;7.00;99.90
38456;DHT22;24237;50.106;20.014;2024-02-26T05:50:54;6.90;99.90
38456;DHT22;24237;50.106;20.014;2024-02-26T05:53:20;6.80;99.90
38456;DHT22;24237;50.106;20.014;2024-02-26T05:55:46;6.80;99.90
38456;DHT22;24237;50.106;20.014;2024-02-26T05:58:12;6.80;1.00
38456;DHT22;24237;50.106;20.014;2024-02-26T06:00:37;6.90;1.00
38456;DHT22;24237;50.106;20.014;2024-02-26T06:03:03;6.90;1.00
38456;DHT22;24237;50.106;20.014;2024-02-26T06:05:29;6.90;1.00
38456;DHT22;24237;50.106;20.014;2024-02-26T06:07:54;7.00;1.00
38456;DHT22;24237;50.106;20.014;2024-02-26T06:10:20;7.10;1.00
38456;DHT22;24237;50.106;20.014;2024-02-26T06:12:47;7.30;99.90
38456;DHT22;24237;50.106;20.014;2024-02-26T06:15:13;7.40;99.90
38456;DHT22;24237;50.106;20.014;2024-02-26T06:17:38;7.40;99.90
38456;DHT22;24237;50.106;20.014;2024-02-26T06:20:04;7.40;99.90
38456;DHT22;24237;50.106;20.014;2024-02-26T06:22:32;7.30;99.90
38456;DHT22;24237;50.106;20.014;2024-02-26T06:24:58;7.50;97.80
38456;DHT22;24237;50.106;20.014;2024-02-26T06:27:23;7.40;1.00
38456;DHT22;24237;50.106;20.014;2024-02-26T06:29:49;7.40;69.80
38456;DHT22;24237;50.106;20.014;2024-02-26T06:32:15;7.40;60.90
38456;DHT22;24237;50.106;20.014;2024-02-26T06:34:41;7.50;99.90
38456;DHT22;24237;50.106;20.014;2024-02-26T06:37:07;7.60;99.90
38456;DHT22;24237;50.106;20.014;2024-02-26T06:39:33;7.80;1.00
38456;DHT22;24237;50.106;20.014;2024-02-26T06:41:59;7.80;1.00
38456;DHT22;24237;50.106;20.014;2024-02-26T06:44:28;7.90;4.80
38456;DHT22;24237;50.106;20.014;2024-02-26T06:47:00;8.00;1.00
38456;DHT22;24237;50.106;20.014;2024-02-26T06:49:26;8.10;1.00
38456;DHT22;24237;50.106;20.014;2024-02-26T06:51:52;8.20;1.00
38456;DHT22;24237;50.106;20.014;2024-02-26T06:54:18;8.30;1.00
38456;DHT22;24237;50.106;20.014;2024-02-26T06:56:43;8.50;99.90
38456;DHT22;24237;50.106;20.014;2024-02-26T06:59:09;8.80;30.70
38456;DHT22;24237;50.106;20.014;2024-02-26T07:01:35;8.90;1.00
38456;DHT22;24237;50.106;20.014;2024-02-26T07:04:00;9.30;99.90
38456;DHT22;24237;50.106;20.014;2024-02-26T07:06:27;9.40;99.90
38456;DHT22;24237;50.106;20.014;2024-02-26T07:08:53;9.70;1.00
38456;DHT22;24237;50.106;20.014;2024-02-26T07:11:19;9.70;1.00
38456;DHT22;24237;50.106;20.014;2024-02-26T07:13:45;9.80;1.00
38456;DHT22;24237;50.106;20.014;2024-02-26T07:16:11;10.00;99.90
38456;DHT22;24237;50.106;20.014;2024-02-26T07:18:38;10.00;1.00
38456;DHT22;24237;50.106;20.014;2024-02-26T07:21:04;10.20;99.90
38456;DHT22;24237;50.106;20.014;2024-02-26T07:23:30;10.40;99.90
38456;DHT22;24237;50.106;20.014;2024-02-26T07:25:56;10.40;99.90
38456;DHT22;24237;50.106;20.014;2024-02-26T07:28:22;10.60;99.90
38456;DHT22;24237;50.106;20.014;2024-02-26T07:30:47;10.60;36.60
38456;DHT22;24237;50.106;20.014;2024-02-26T07:33:13;10.70;1.00
38456;DHT22;24237;50.106;20.014;2024-02-26T07:35:39;10.60;50.00
38456;DHT22;24237;50.106;20.014;2024-02-26T07:38:05;10.90;10.60
38456;DHT22;24237;50.106;20.014;2024-02-26T07:40:30;10.90;1.00
38456;DHT22;24237;50.106;20.014;2024-02-26T07:42:56;11.20;1.00
38456;DHT22;24237;50.106;20.014;2024-02-26T07:45:22;11.10;1.00
38456;DHT22;24237;50.106;20.014;2024-02-26T07:47:48;11.40;99.90
38456;DHT22;24237;50.106;20.014;2024-02-26T07:50:13;11.40;99.90
38456;DHT22;24237;50.106;20.014;2024-02-26T07:52:39;11.20;1.00
38456;DHT22;24237;50.106;20.014;2024-02-26T07:55:06;11.10;1.00
38456;DHT22;24237;50.106;20.014;2024-02-26T07:57:32;11.10;1.00
38456;DHT22;24237;50.106;20.014;2024-02-26T08:00:02;10.90;1.00
38456;DHT22;24237;50.106;20.014;2024-02-26T08:02:28;10.70;99.90
38456;DHT22;24237;50.106;20.014;2024-02-26T08:04:54;10.70;99.90
38456;DHT22;24237;50.106;20.014;2024-02-26T08:07:20;11.10;99.90
38456;DHT22;24237;50.106;20.014;2024-02-26T08:09:47;11.40;1.00
38456;DHT22;24237;50.106;20.014;2024-02-26T08:12:13;11.60;82.50
38456;DHT22;24237;50.106;20.014;2024-02-26T08:14:39;11.90;1.00
38456;DHT22;24237;50.106;20.014;2024-02-26T08:17:05;11.90;8.90
38456;DHT22;24237;50.106;20.014;2024-02-26T08:19:30;11.90;4.70
38456;DHT22;24237;50.106;20.014;2024-02-26T08:21:56;12.40;38.70
38456;DHT22;24237;50.106;20.014;2024-02-26T08:24:23;12.90;99.90
38456;DHT22;24237;50.106;20.014;2024-02-26T08:26:48;12.60;1.00
38456;DHT22;24237;50.106;20.014;2024-02-26T08:29:14;12.80;1.00
38456;DHT22;24237;50.106;20.014;2024-02-26T08:31:40;12.90;99.90
38456;DHT22;24237;50.106;20.014;2024-02-26T08:34:06;12.90;99.90
38456;DHT22;24237;50.106;20.014;2024-02-26T08:36:33;13.10;99.90
38456;DHT22;24237;50.106;20.014;2024-02-26T08:38:59;13.10;99.90
38456;DHT22;24237;50.106;20.014;2024-02-26T08:41:25;13.50;99.90
38456;DHT22;24237;50.106;20.014;2024-02-26T08:43:51;13.70;99.90
38456;DHT22;24237;50.106;20.014;2024-02-26T08:46:17;13.60;99.90
38456;DHT22;24237;50.106;20.014;2024-02-26T08:48:43;13.70;99.90
38456;DHT22;24237;50.106;20.014;2024-02-26T08:51:09;14.10;99.90
38456;DHT22;24237;50.106;20.014;2024-02-26T08:53:35;14.10;58.30
38456;DHT22;24237;50.106;20.014;2024-02-26T08:56:01;14.10;47.50
38456;DHT22;24237;50.106;20.014;2024-02-26T08:58:28;14.10;49.60
38456;DHT22;24237;50.106;20.014;2024-02-26T09:00:54;14.00;97.60
38456;DHT22;24237;50.106;20.014;2024-02-26T09:03:19;14.20;99.60
38456;DHT22;24237;50.106;20.014;2024-02-26T09:05:45;14.30;53.90
38456;DHT22;24237;50.106;20.014;2024-02-26T09:08:11;14.60;50.70
38456;DHT22;24237;50.106;20.014;2024-02-26T09:10:37;14.70;4.80
38456;DHT22;24237;50.106;20.014;2024-02-26T09:13:03;14.80;1.00
38456;DHT22;24237;50.106;20.014;2024-02-26T09:15:28;14.20;49.00
38456;DHT22;24237;50.106;20.014;2024-02-26T09:17:54;13.80;99.90
38456;DHT22;24237;50.106;20.014;2024-02-26T09:20:20;13.70;99.90
38456;DHT22;24237;50.106;20.014;2024-02-26T09:22:46;13.90;99.90
38456;DHT22;24237;50.106;20.014;2024-02-26T09:25:13;13.60;99.90
38456;DHT22;24237;50.106;20.014;2024-02-26T09:27:39;13.60;99.90
38456;DHT22;24237;50.106;20.014;2024-02-26T09:30:05;13.60;99.90
38456;DHT22;24237;50.106;20.014;2024-02-26T09:32:30;13.70;99.90
38456;DHT22;24237;50.106;20.014;2024-02-26T09:34:56;13.60;99.90
38456;DHT22;24237;50.106;20.014;2024-02-26T09:37:22;13.80;99.90
38456;DHT22;24237;50.106;20.014;2024-02-26T09:39:48;13.90;99.90
38456;DHT22;24237;50.106;20.014;2024-02-26T09:42:13;13.90;99.90
38456;DHT22;24237;50.106;20.014;2024-02-26T09:44:40;14.20;99.90
38456;DHT22;24237;50.106;20.014;2024-02-26T09:47:10;14.20;99.90
38456;DHT22;24237;50.106;20.014;2024-02-26T09:49:37;14.60;99.90
38456;DHT22;24237;50.106;20.014;2024-02-26T09:52:04;14.70;17.10
38456;DHT22;24237;50.106;20.014;2024-02-26T09:54:31;14.80;1.00
38456;DHT22;24237;50.106;20.014;2024-02-26T09:57:00;14.70;1.00
38456;DHT22;24237;50.106;20.014;2024-02-26T09:59:29;15.00;1.00
38456;DHT22;24237;50.106;20.014;2024-02-26T10:01:57;15.10;1.00
38456;DHT22;24237;50.106;20.014;2024-02-26T10:04:24;15.30;1.00
38456;DHT22;24237;50.106;20.014;2024-02-26T10:06:51;15.20;1.00
38456;DHT22;24237;50.106;20.014;2024-02-26T10:09:17;15.20;1.00
38456;DHT22;24237;50.106;20.014;2024-02-26T10:11:43;15.90;1.00
38456;DHT22;24237;50.106;20.014;2024-02-26T10:14:09;16.20;99.90
38456;DHT22;24237;50.106;20.014;2024-02-26T10:16:35;16.50;99.90
38456;DHT22;24237;50.106;20.014;2024-02-26T10:19:01;16.60;99.90
38456;DHT22;24237;50.106;20.014;2024-02-26T10:21:27;16.80;98.70
38456;DHT22;24237;50.106;20.014;2024-02-26T10:23:53;17.00;67.60
38456;DHT22;24237;50.106;20.014;2024-02-26T10:26:20;17.20;1.00
38456;DHT22;24237;50.106;20.014;2024-02-26T10:28:46;17.40;1.00
38456;DHT22;24237;50.106;20.014;2024-02-26T10:31:13;17.70;1.00
38456;DHT22;24237;50.106;20.014;2024-02-26T10:33:40;17.80;99.90
38456;DHT22;24237;50.106;20.014;2024-02-26T10:36:07;17.90;99.90
38456;DHT22;24237;50.106;20.014;2024-02-26T10:38:34;18.10;99.90
38456;DHT22;24237;50.106;20.014;2024-02-26T10:41:01;18.50;99.90
38456;DHT22;24237;50.106;20.014;2024-02-26T10:43:27;18.70;79.10
38456;DHT22;24237;50.106;20.014;2024-02-26T10:45:55;18.70;1.00
38456;DHT22;24237;50.106;20.014;2024-02-26T10:48:21;18.70;1.00
38456;DHT22;24237;50.106;20.014;2024-02-26T10:50:47;19.10;1.00
38456;DHT22;24237;50.106;20.014;2024-02-26T10:53:17;19.00;99.90
38456;DHT22;24237;50.106;20.014;2024-02-26T10:56:04;19.20;99.90
38456;DHT22;24237;50.106;20.014;2024-02-26T10:58:31;19.10;99.90
38456;DHT22;24237;50.106;20.014;2024-02-26T11:00:57;19.10;99.90
38456;DHT22;24237;50.106;20.014;2024-02-26T11:03:25;19.20;99.90
38456;DHT22;24237;50.106;20.014;2024-02-26T11:05:51;19.30;99.90
38456;DHT22;24237;50.106;20.014;2024-02-26T11:08:20;19.10;99.90
38456;DHT22;24237;50.106;20.014;2024-02-26T11:10:52;19.50;99.90
38456;DHT22;24237;50.106;20.014;2024-02-26T11:13:18;19.80;99.90
38456;DHT22;24237;50.106;20.014;2024-02-26T11:15:46;20.40;99.90
38456;DHT22;24237;50.106;20.014;2024-02-26T11:18:16;20.30;65.90
38456;DHT22;24237;50.106;20.014;2024-02-26T11:20:44;19.70;2.20
38456;DHT22;24237;50.106;20.014;2024-02-26T11:23:11;19.70;11.80
38456;DHT22;24237;50.106;20.014;2024-02-26T11:25:37;19.50;1.00
38456;DHT22;24237;50.106;20.014;2024-02-26T11:28:07;19.50;1.00
38456;DHT22;24237;50.106;20.014;2024-02-26T11:30:37;19.90;1.00
38456;DHT22;24237;50.106;20.014;2024-02-26T11:33:06;20.00;1.00
38456;DHT22;24237;50.106;20.014;2024-02-26T11:35:34;19.40;1.00
38456;DHT22;24237;50.106;20.014;2024-02-26T11:38:01;19.10;1.00
38456;DHT22;24237;50.106;20.014;2024-02-26T11:40:27;19.20;1.00
38456;DHT22;24237;50.106;20.014;2024-02-26T11:42:53;19.30;1.00
38456;DHT22;24237;50.106;20.014;2024-02-26T11:48:21;19.10;1.00
38456;DHT22;24237;50.106;20.014;2024-02-26T11:50:57;19.40;1.00
38456;DHT22;24237;50.106;20.014;2024-02-26T11:58:41;20.50;1.00
38456;DHT22;24237;50.106;20.014;2024-02-26T12:01:37;20.30;1.00
38456;DHT22;24237;50.106;20.014;2024-02-26T12:04:04;20.40;1.00
38456;DHT22;24237;50.106;20.014;2024-02-26T12:06:30;20.40;1.00
38456;DHT22;24237;50.106;20.014;2024-02-26T12:08:56;20.30;1.00
38456;DHT22;24237;50.106;20.014;2024-02-26T12:11:22;20.10;1.00
38456;DHT22;24237;50.106;20.014;2024-02-26T12:13:48;20.20;1.00
38456;DHT22;24237;50.106;20.014;2024-02-26T12:16:42;20.10;99.90
38456;DHT22;24237;50.106;20.014;2024-02-26T12:19:10;19.60;1.00
38456;DHT22;24237;50.106;20.014;2024-02-26T12:21:37;19.70;1.00
38456;DHT22;24237;50.106;20.014;2024-02-26T12:24:13;19.90;1.00
38456;DHT22;24237;50.106;20.014;2024-02-26T12:26:40;21.00;1.00
38456;DHT22;24237;50.106;20.014;2024-02-26T12:29:06;21.70;99.90
38456;DHT22;24237;50.106;20.014;2024-02-26T12:31:32;21.50;99.90
38456;DHT22;24237;50.106;20.014;2024-02-26T12:34:01;21.50;99.90
38456;DHT22;24237;50.106;20.014;2024-02-26T12:36:28;21.70;99.90
38456;DHT22;24237;50.106;20.014;2024-02-26T12:38:53;21.40;99.90
38456;DHT22;24237;50.106;20.014;2024-02-26T12:41:20;21.40;99.90
38456;DHT22;24237;50.106;20.014;2024-02-26T12:43:46;21.40;99.90
38456;DHT22;24237;50.106;20.014;2024-02-26T12:46:12;21.00;99.90
38456;DHT22;24237;50.106;20.014;2024-02-26T12:48:39;20.60;99.90
38456;DHT22;24237;50.106;20.014;2024-02-26T12:51:05;20.70;99.90
38456;DHT22;24237;50.106;20.014;2024-02-26T12:53:32;21.00;99.90
38456;DHT22;24237;50.106;20.014;2024-02-26T12:55:58;21.20;99.90
38456;DHT22;24237;50.106;20.014;2024-02-26T12:58:24;21.20;99.90
38456;DHT22;24237;50.106;20.014;2024-02-26T13:00:54;21.30;99.90
38456;DHT22;24237;50.106;20.014;2024-02-26T13:03:21;21.50;99.90
38456;DHT22;24237;50.106;20.014;2024-02-26T13:05:47;21.50;99.90
38456;DHT22;24237;50.106;20.014;2024-02-26T13:08:20;20.90;99.90
38456;DHT22;24237;50.106;20.014;2024-02-26T13:10:46;20.40;99.90
38456;DHT22;24237;50.106;20.014;2024-02-26T13:13:15;20.40;99.90
38456;DHT22;24237;50.106;20.014;2024-02-26T13:15:44;20.60;99.90
38456;DHT22;24237;50.106;20.014;2024-02-26T13:18:14;20.90;99.90
38456;DHT22;24237;50.106;20.014;2024-02-26T13:20:40;20.60;99.90
38456;DHT22;24237;50.106;20.014;2024-02-26T13:23:11;20.60;99.90
38456;DHT22;24237;50.106;20.014;2024-02-26T13:25:38;20.80;99.90
38456;DHT22;24237;50.106;20.014;2024-02-26T13:28:16;20.80;99.90
38456;DHT22;24237;50.106;20.014;2024-02-26T13:30:50;20.60;99.90
38456;DHT22;24237;50.106;20.014;2024-02-26T13:33:17;20.50;99.90
38456;DHT22;24237;50.106;20.014;2024-02-26T13:35:43;20.20;99.90
38456;DHT22;24237;50.106;20.014;2024-02-26T13:38:10;20.00;99.90
38456;DHT22;24237;50.106;20.014;2024-02-26T13:40:37;19.80;99.90
38456;DHT22;24237;50.106;20.014;2024-02-26T13:43:04;19.50;99.90
38456;DHT22;24237;50.106;20.014;2024-02-26T13:45:30;19.30;99.90
38456;DHT22;24237;50.106;20.014;2024-02-26T13:48:02;19.00;99.90
38456;DHT22;24237;50.106;20.014;2024-02-26T13:50:28;18.60;99.90
38456;DHT22;24237;50.106;20.014;2024-02-26T13:52:54;18.20;99.90
38456;DHT22;24237;50.106;20.014;2024-02-26T13:55:22;18.40;99.90
38456;DHT22;24237;50.106;20.014;2024-02-26T13:57:49;18.60;99.90
38456;DHT22;24237;50.106;20.014;2024-02-26T14:00:17;18.80;99.90
38456;DHT22;24237;50.106;20.014;2024-02-26T14:02:43;18.70;99.90
38456;DHT22;24237;50.106;20.014;2024-02-26T14:05:08;18.90;99.90
38456;DHT22;24237;50.106;20.014;2024-02-26T14:07:34;19.00;99.90
38456;DHT22;24237;50.106;20.014;2024-02-26T14:10:00;19.20;99.90
38456;DHT22;24237;50.106;20.014;2024-02-26T14:12:25;18.90;99.90
38456;DHT22;24237;50.106;20.014;2024-02-26T14:14:51;18.80;99.90
38456;DHT22;24237;50.106;20.014;2024-02-26T14:17:19;18.80;99.90
38456;DHT22;24237;50.106;20.014;2024-02-26T14:19:45;18.70;99.90
38456;DHT22;24237;50.106;20.014;2024-02-26T14:22:13;18.70;99.90
38456;DHT22;24237;50.106;20.014;2024-02-26T14:24:39;18.90;99.90
38456;DHT22;24237;50.106;20.014;2024-02-26T14:27:06;18.90;99.90
38456;DHT22;24237;50.106;20.014;2024-02-26T14:29:33;19.30;99.90
38456;DHT22;24237;50.106;20.014;2024-02-26T14:31:58;19.70;99.90
38456;DHT22;24237;50.106;20.014;2024-02-26T14:34:24;20.10;99.90
38456;DHT22;24237;50.106;20.014;2024-02-26T14:36:49;20.10;99.90
38456;DHT22;24237;50.106;20.014;2024-02-26T14:39:15;20.00;99.90
38456;DHT22;24237;50.106;20.014;2024-02-26T14:41:41;19.30;99.90
38456;DHT22;24237;50.106;20.014;2024-02-26T14:44:06;19.20;99.90
38456;DHT22;24237;50.106;20.014;2024-02-26T14:46:32;18.90;99.90
38456;DHT22;24237;50.106;20.014;2024-02-26T14:48:58;18.80;99.90
38456;DHT22;24237;50.106;20.014;2024-02-26T14:51:23;18.80;99.90
38456;DHT22;24237;50.106;20.014;2024-02-26T14:53:49;18.80;99.90
38456;DHT22;24237;50.106;20.014;2024-02-26T14:56:15;18.50;99.90
38456;DHT22;24237;50.106;20.014;2024-02-26T14:58:40;18.40;99.90
38456;DHT22;24237;50.106;20.014;2024-02-26T15:01:06;18.30;99.90
38456;DHT22;24237;50.106;20.014;2024-02-26T15:03:32;18.10;99.90
38456;DHT22;24237;50.106;20.014;2024-02-26T15:05:58;18.00;99.90
38456;DHT22;24237;50.106;20.014;2024-02-26T15:08:24;18.10;1.00
38456;DHT22;24237;50.106;20.014;2024-02-26T15:10:49;18.00;1.00
38456;DHT22;24237;50.106;20.014;2024-02-26T15:13:16;17.90;1.00
38456;DHT22;24237;50.106;20.014;2024-02-26T15:15:43;18.00;1.00
38456;DHT22;24237;50.106;20.014;2024-02-26T15:18:09;17.80;1.00
38456;DHT22;24237;50.106;20.014;2024-02-26T15:20:37;17.80;1.00
38456;DHT22;24237;50.106;20.014;2024-02-26T15:23:04;17.80;1.00
38456;DHT22;24237;50.106;20.014;2024-02-26T15:25:29;17.60;1.00
38456;DHT22;24237;50.106;20.014;2024-02-26T15:27:55;17.40;1.00
38456;DHT22;24237;50.106;20.014;2024-02-26T15:30:21;17.60;1.00
38456;DHT22;24237;50.106;20.014;2024-02-26T15:32:47;17.60;1.00
38456;DHT22;24237;50.106;20.014;2024-02-26T15:35:12;17.60;1.00
38456;DHT22;24237;50.106;20.014;2024-02-26T15:37:38;17.50;1.00
38456;DHT22;24237;50.106;20.014;2024-02-26T15:40:04;17.40;1.00
38456;DHT22;24237;50.106;20.014;2024-02-26T15:42:32;17.20;1.00
38456;DHT22;24237;50.106;20.014;2024-02-26T15:44:58;17.30;1.00
38456;DHT22;24237;50.106;20.014;2024-02-26T15:47:24;17.30;1.00
38456;DHT22;24237;50.106;20.014;2024-02-26T15:49:50;17.20;1.00
38456;DHT22;24237;50.106;20.014;2024-02-26T15:52:18;17.00;1.00
38456;DHT22;24237;50.106;20.014;2024-02-26T15:54:44;17.10;1.00
38456;DHT22;24237;50.106;20.014;2024-02-26T15:57:11;16.90;7.20
38456;DHT22;24237;50.106;20.014;2024-02-26T15:59:37;16.90;32.20
38456;DHT22;24237;50.106;20.014;2024-02-26T16:02:03;16.70;90.70
38456;DHT22;24237;50.106;20.014;2024-02-26T16:04:29;16.70;99.90
38456;DHT22;24237;50.106;20.014;2024-02-26T16:06:58;16.60;99.90
38456;DHT22;24237;50.106;20.014;2024-02-26T16:09:25;16.60;99.90
38456;DHT22;24237;50.106;20.014;2024-02-26T16:11:51;16.50;99.90
38456;DHT22;24237;50.106;20.014;2024-02-26T16:14:38;16.70;99.90
38456;DHT22;24237;50.106;20.014;2024-02-26T16:17:21;16.50;99.90
38456;DHT22;24237;50.106;20.014;2024-02-26T16:19:48;16.50;99.90
38456;DHT22;24237;50.106;20.014;2024-02-26T16:22:14;16.30;99.90
38456;DHT22;24237;50.106;20.014;2024-02-26T16:24:40;16.20;99.90
38456;DHT22;24237;50.106;20.014;2024-02-26T16:27:05;15.90;1.00
38456;DHT22;24237;50.106;20.014;2024-02-26T16:29:31;15.90;1.00
38456;DHT22;24237;50.106;20.014;2024-02-26T16:31:57;16.00;1.00
38456;DHT22;24237;50.106;20.014;2024-02-26T16:34:22;16.00;1.00
38456;DHT22;24237;50.106;20.014;2024-02-26T16:36:48;15.90;1.00